Abbotsford, Wisconsin
Current Conditions -  °F | °C
As of 2:55 PM on Tuesday 21 Oct 2014 (Local Time) from KMDZ Reporting Station
Clear Clear  
Wind Chill: 45°   Ceiling: Unl
Heat Index: 48°   Visibility: 10mi
Dew Point: 36°   Wind: 7mph
Humidity: 63%   Direction: 140°SE
Pressure: 30.22"   Gusts: NA
Location:  44.95°N, 90.32°W
Report Text: KMDZ 211955Z AUTO 14006KT 10SM CLR 09/02 A3022 RMK AO2 T00890023
Loading
Personal Weather Stations






























Interactive Weather Map
Tropical Storm Tracking
New forecast layout! Learn more

10-Day Weather Forecast

Advertisements
Track Severe Weather on mobile